Latest Weather Observations for Mildura

IDV60801

Issued at 6:32 pm EDT Tuesday 17 October 2017 (issued every 30 minutes, with the page automatically refreshed every 10 minutes)

About weather observations | Map of weather stations | Latest weather observations for VIC | Other Formats
Station Details ID: 076031 Name: MILDURA AIRPORT Lat: -34.24 Lon: 142.09 Height: 50.0 m
Data from the previous 72 hours. | See also: Recent months at Mildura
Date/Time
EDT
Temp
°C
App
Temp
°C
Dew
Point
°C
Rel
Hum
%
Delta-T
°C
Wind Press
QNH
hPa
Press
MSL
hPa
Rain since
9am
mm
Dir  Spd
km/h
Gust
km/h
Spd
kts
Gust
kts
17/06:30pm 31.6 28.0 6.6 21 13.5 NE 15 22 8 12 1016.5 1016.5 0.0
17/06:00pm 31.7 27.0 6.0 20 13.7 NNE 20 28 11 15 1016.5 1016.5 0.0
17/05:30pm 32.1 27.6 6.3 20 13.9 NE 19 26 10 14 1016.3 1016.3 0.0
17/05:00pm 32.3 27.5 5.7 19 14.2 ENE 20 28 11 15 1016.4 1016.4 0.0
17/04:30pm 32.7 28.2 6.8 20 14.1 NE 20 33 11 18 1016.5 1016.5 0.0
17/04:00pm 31.5 26.9 6.5 21 13.5 NNE 20 37 11 20 1016.8 1016.8 0.0
17/03:30pm 32.3 28.0 7.2 21 13.7 NE 19 28 10 15 1017.0 1017.0 0.0
17/03:00pm 31.8 27.0 7.5 22 13.3 NNE 22 33 12 18 1017.5 1017.5 0.0
17/02:30pm 31.7 26.4 6.7 21 13.5 NNE 24 37 13 20 1018.1 1018.0 0.0
17/02:00pm 31.6 26.8 7.3 22 13.2 NE 22 35 12 19 1018.5 1018.4 0.0
17/01:30pm 31.1 25.4 6.9 22 13.1 NE 26 39 14 21 1018.8 1018.7 0.0
17/01:00pm 30.2 24.9 6.8 23 12.6 NE 24 39 13 21 1019.2 1019.1 0.0
17/12:30pm 29.6 24.3 6.9 24 12.2 NNE 24 37 13 20 1019.7 1019.6 0.0
17/12:00pm 29.8 25.1 7.7 25 12.0 N 22 35 12 19 1020.0 1019.9 0.0
17/11:30am 28.6 23.4 7.2 26 11.5 N 24 33 13 18 1020.4 1020.3 0.0
17/11:00am 28.9 24.3 8.0 27 11.4 N 22 35 12 19 1020.6 1020.5 0.0
17/10:30am 27.3 22.6 7.7 29 10.5 N 22 35 12 19 1021.0 1020.9 0.0
17/10:00am 26.3 21.9 6.4 28 10.4 NNE 19 28 10 15 1021.0 1020.9 0.0
17/09:30am 24.8 20.5 5.1 28 10.0 NNE 17 22 9 12 1021.0 1020.9 0.0
17/09:00am 22.6 17.5 3.2 28 9.3 NNE 19 22 10 12 1021.1 1021.0 0.0
17/08:30am 21.6 16.8 2.8 29 8.9 NE 17 22 9 12 1020.9 1020.8 0.0
17/08:00am 20.1 16.5 2.9 32 8.0 NE 11 17 6 9 1020.5 1020.4 0.0
17/07:30am 17.9 14.7 3.0 37 6.9 NE 9 13 5 7 1020.0 1019.9 0.0
17/07:00am 16.4 12.8 3.1 41 6.1 NE 11 13 6 7 1019.7 1019.6 0.0
17/06:30am 17.5 13.9 3.0 38 6.7 NNE 11 13 6 7 1019.3 1019.2 0.0
17/06:00am 18.0 14.0 2.7 36 7.0 NE 13 15 7 8 1019.0 1018.9 0.0
17/05:30am 18.3 15.0 2.6 35 7.2 ENE 9 13 5 7 1018.9 1018.8 0.0
17/05:00am 19.5 15.9 2.8 33 7.8 ENE 11 19 6 10 1018.8 1018.7 0.0
17/04:30am 20.6 16.1 2.4 30 8.5 ENE 15 19 8 10 1018.8 1018.7 0.0
17/04:00am 21.6 16.7 2.3 28 9.0 ENE 17 22 9 12 1018.9 1018.8 0.0
17/03:30am 21.6 17.3 3.3 30 8.8 NE 15 20 8 11 1019.0 1018.9 0.0
17/03:00am 22.1 17.1 3.7 30 8.9 NE 19 26 10 14 1019.1 1019.0 0.0
17/02:30am 22.3 17.4 3.9 30 8.9 NE 19 26 10 14 1019.2 1019.1 0.0
17/02:00am 22.8 17.7 4.3 30 9.1 NE 20 30 11 16 1019.4 1019.3 0.0
17/01:30am 23.2 19.0 5.6 32 8.9 NE 17 28 9 15 1019.7 1019.6 0.0
17/01:00am 23.3 19.1 5.7 32 8.9 NE 17 22 9 12 1020.0 1019.9 0.0
17/12:30am 23.5 19.3 5.9 32 9.0 ENE 17 24 9 13 1020.1 1020.0 0.0
17/12:00am 23.9 19.8 6.2 32 9.1 ENE 17 22 9 12 1020.1 1020.0 0.0
 
Date/Time
EDT
Temp
°C
App
Temp
°C
Dew
Point
°C
Rel
Hum
%
Delta-T
°C
Wind Press
QNH
hPa
Press
MSL
hPa
Rain since
9am
mm
Dir  Spd
km/h
Gust
km/h
Spd
kts
Gust
kts
16/11:30pm 22.5 18.9 6.7 36 8.1 ENE 15 19 8 10 1020.0 1019.9 0.0
16/11:00pm 21.9 19.5 7.0 38 7.6 E 9 13 5 7 1019.9 1019.8 0.0
16/10:30pm 22.4 19.9 6.6 36 8.1 E 9 11 5 6 1019.7 1019.6 0.0
16/10:00pm 23.1 20.6 6.4 34 8.5 E 9 11 5 6 1019.4 1019.3 0.0
16/09:30pm 24.0 21.4 6.3 32 9.1 E 9 13 5 7 1019.1 1019.0 0.0
16/09:00pm 24.8 22.3 6.5 31 9.5 E 9 11 5 6 1018.7 1018.6 0.0
16/08:30pm 25.7 23.5 6.3 29 10.1 E 7 11 4 6 1018.3 1018.2 0.0
16/08:00pm 27.4 24.8 6.2 26 11.1 E 9 13 5 7 1018.0 1017.9 0.0
16/07:30pm 29.5 26.0 5.6 22 12.5 E 13 17 7 9 1017.7 1017.6 0.0
16/07:00pm 31.0 27.3 4.7 19 13.7 NE 13 17 7 9 1017.5 1017.5 0.0
16/06:30pm 31.3 27.8 3.4 17 14.3 ENE 11 19 6 10 1017.5 1017.5 0.0
16/06:00pm 32.0 28.2 3.9 17 14.5 ENE 13 20 7 11 1017.5 1017.5 0.0
16/05:30pm 32.2 28.3 3.2 16 14.9 NE 13 20 7 11 1017.5 1017.5 0.0
16/05:00pm 31.6 29.2 4.4 18 14.1 NE 6 15 3 8 1017.5 1017.5 0.0
16/04:30pm 32.3 28.3 5.0 18 14.4 E 15 20 8 11 1017.8 1017.7 0.0
16/04:00pm 31.8 27.0 4.6 18 14.2 NE 19 28 10 15 1018.1 1018.0 0.0
16/03:30pm 31.6 28.8 5.2 19 13.9 SE 9 20 5 11 1018.4 1018.3 0.0
16/03:00pm 32.1 27.9 5.6 19 14.1 ENE 17 30 9 16 1018.8 1018.7 0.0
16/02:30pm 31.0 27.1 5.4 20 13.5 ENE 15 24 8 13 1019.2 1019.1 0.0
16/02:00pm 31.1 27.1 4.8 19 13.7 NNE 15 26 8 14 1019.5 1019.4 0.0
16/01:30pm 30.9 27.1 6.0 21 13.3 NE 15 32 8 17 1019.8 1019.7 0.0
16/01:00pm 30.3 27.9 6.9 23 12.6 NE 9 22 5 12 1020.2 1020.1 0.0
16/12:30pm 30.0 26.5 7.2 24 12.3 NNE 15 26 8 14 1020.6 1020.5 0.0
16/12:00pm 28.8 25.0 7.4 26 11.5 NE 17 28 9 15 1021.1 1021.0 0.0
16/11:30am 28.2 25.0 8.5 29 10.8 NNE 15 24 8 13 1021.5 1021.4 0.0
16/11:00am 27.2 23.7 8.6 31 10.1 NE 17 24 9 13 1021.9 1021.8 0.0
16/10:30am 26.1 22.3 9.0 34 9.3 NNE 19 28 10 15 1022.0 1021.9 0.0
16/10:00am 24.7 20.8 8.6 36 8.6 NE 19 26 10 14 1022.3 1022.2 0.0
16/09:30am 22.6 20.0 9.4 43 7.1 ENE 13 19 7 10 1022.1 1022.0 0.0
16/09:00am 21.2 18.2 9.4 47 6.3 E 15 20 8 11 1021.9 1021.8 0.0
16/08:30am 19.8 16.4 9.1 50 5.7 E 17 20 9 11 1021.9 1021.8 0.0
16/08:00am 19.0 16.3 8.9 52 5.3 ESE 13 19 7 10 1021.8 1021.7 0.0
16/07:30am 17.0 14.7 8.9 59 4.2 ESE 11 15 6 8 1021.6 1021.5 0.0
16/07:00am 16.1 13.6 8.3 60 3.9 ESE 11 13 6 7 1021.3 1021.2 0.0
16/06:30am 16.7 14.2 8.4 58 4.2 E 11 15 6 8 1021.0 1020.9 0.0
16/06:00am 17.3 14.5 8.4 56 4.6 E 13 22 7 12 1020.6 1020.5 0.0
16/05:30am 17.4 14.9 8.3 55 4.7 E 11 17 6 9 1020.4 1020.3 0.0
16/05:00am 16.8 14.3 8.2 57 4.4 E 11 15 6 8 1020.2 1020.1 0.0
16/04:30am 17.0 14.5 8.2 56 4.5 E 11 17 6 9 1020.1 1020.0 0.0
16/04:00am 16.7 13.7 7.9 56 4.4 ESE 13 19 7 10 1020.1 1020.0 0.0
16/03:30am 16.9 14.4 8.1 56 4.5 ESE 11 13 6 7 1020.2 1020.1 0.0
16/03:00am 17.0 14.4 7.9 55 4.6 ESE 11 15 6 8 1020.3 1020.2 0.0
16/02:30am 16.9 14.3 7.8 55 4.6 ESE 11 13 6 7 1020.2 1020.1 0.0
16/02:00am 17.8 15.2 7.8 52 5.1 ESE 11 15 6 8 1020.4 1020.3 0.0
16/01:30am 18.2 15.9 7.6 50 5.4 E 9 11 5 6 1020.5 1020.4 0.0
16/01:00am 18.3 16.4 7.4 49 5.5 ESE 7 11 4 6 1020.5 1020.4 0.0
16/12:30am 19.2 16.9 7.3 46 6.0 SE 9 13 5 7 1020.4 1020.3 0.0
16/12:00am 20.2 17.1 7.2 43 6.6 ESE 13 17 7 9 1020.5 1020.4 0.0
 
Date/Time
EDT
Temp
°C
App
Temp
°C
Dew
Point
°C
Rel
Hum
%
Delta-T
°C
Wind Press
QNH
hPa
Press
MSL
hPa
Rain since
9am
mm
Dir  Spd
km/h
Gust
km/h
Spd
kts
Gust
kts
15/11:30pm 20.5 17.5 7.5 43 6.7 SE 13 17 7 9 1020.3 1020.2 0.0
15/11:00pm 20.7 17.7 7.7 43 6.7 SE 13 17 7 9 1020.3 1020.2 0.0
15/10:30pm 20.5 17.6 8.2 45 6.4 SE 13 17 7 9 1020.2 1020.1 0.0
15/10:00pm 20.8 18.7 8.1 44 6.6 SE 9 13 5 7 1020.1 1020.0 0.0
15/09:30pm 21.9 19.7 7.7 40 7.4 SSE 9 13 5 7 1019.9 1019.8 0.0
15/09:00pm 22.9 20.3 7.8 38 7.9 SSE 11 15 6 8 1019.8 1019.7 0.0
15/08:30pm 24.1 21.5 7.7 35 8.7 SSE 11 15 6 8 1019.5 1019.4 0.0
15/08:00pm 25.2 22.2 7.8 33 9.2 SSE 13 17 7 9 1019.2 1019.1 0.0
15/07:30pm 26.2 22.8 7.7 31 9.9 SE 15 20 8 11 1019.0 1018.9 0.0
15/07:00pm 27.4 24.4 7.8 29 10.5 SE 13 20 7 11 1018.7 1018.6 0.0
15/06:30pm 28.1 25.1 7.9 28 10.9 ESE 13 20 7 11 1018.6 1018.5 0.0
15/06:00pm 28.1 24.6 7.4 27 11.1 SSE 15 32 8 17 1018.6 1018.5 0.0
15/05:30pm 27.9 24.8 7.2 27 11.1 SE 13 19 7 10 1018.6 1018.5 0.0
15/05:00pm 28.2 25.7 8.0 28 10.9 SE 11 19 6 10 1018.8 1018.7 0.0
15/04:30pm 28.0 24.6 7.8 28 10.9 SE 15 26 8 14 1018.7 1018.6 0.0
15/04:00pm 28.7 25.5 8.4 28 11.1 SE 15 28 8 15 1019.0 1018.9 0.0
15/03:30pm 27.4 24.9 8.3 30 10.4 SE 11 17 6 9 1019.4 1019.3 0.0
15/03:00pm 27.5 24.3 8.4 30 10.4 ESE 15 28 8 15 1019.8 1019.7 0.0
15/02:30pm 26.7 22.7 8.2 31 10.0 SE 19 28 10 15 1020.1 1020.0 0.0
15/02:00pm 26.6 22.9 8.1 31 9.9 SE 17 26 9 14 1020.5 1020.4 0.0
15/01:30pm 26.0 21.9 8.0 32 9.7 SE 19 28 10 15 1020.8 1020.7 0.0
15/01:00pm 24.9 20.5 7.5 33 9.2 SE 20 30 11 16 1021.2 1021.1 0.0
15/12:30pm 23.9 19.6 7.1 34 8.8 SE 19 28 10 15 1021.6 1021.5 0.0
15/12:00pm 23.3 18.9 6.6 34 8.6 ESE 19 28 10 15 1022.0 1021.9 0.0
15/11:30am 22.4 17.6 5.4 33 8.5 SE 20 28 11 15 1022.3 1022.2 0.0
15/11:00am 21.4 16.5 5.3 35 8.0 SE 20 28 11 15 1022.5 1022.4 0.0
15/10:30am 20.9 16.8 6.1 38 7.4 SE 17 22 9 12 1022.6 1022.5 0.0
15/10:00am 18.4 13.9 5.9 44 6.1 SE 19 22 10 12 1022.7 1022.6 0.0
15/09:30am 17.4 13.7 6.3 48 5.5 SE 15 19 8 10 1022.8 1022.7 0.0
15/09:00am 15.0 11.7 6.3 56 4.2 SSE 13 19 7 10 1022.5 1022.4 0.0
15/08:30am 12.9 9.5 5.8 62 3.3 SSE 13 19 7 10 1022.6 1022.5 0.0
15/08:00am 11.0 8.0 6.0 71 2.3 S 11 17 6 9 1022.2 1022.1 0.0
15/07:30am 9.6 7.3 5.8 77 1.7 S 7 13 4 7 1022.2 1022.1 0.0
15/07:00am 9.0 6.7 5.7 80 1.5 S 7 11 4 6 1021.8 1021.7 0.0
15/06:30am 9.2 6.2 5.9 80 1.5 SSE 11 13 6 7 1021.4 1021.3 0.0
15/06:00am 9.3 6.7 6.2 81 1.4 S 9 13 5 7 1021.4 1021.3 0.0
15/05:30am 9.2 7.0 6.1 81 1.4 S 7 11 4 6 1021.4 1021.3 0.0
15/05:00am 9.7 7.1 6.2 79 1.6 SSE 9 13 5 7 1021.4 1021.3 0.0
15/04:30am 10.2 7.7 6.4 77 1.8 SSE 9 13 5 7 1021.4 1021.3 0.0
15/04:00am 10.7 8.1 6.3 74 2.1 SSE 9 13 5 7 1021.4 1021.3 0.0
15/03:30am 11.4 8.8 6.3 71 2.4 S 9 15 5 8 1021.4 1021.3 0.0
15/03:00am 11.6 9.0 6.1 69 2.6 S 9 17 5 9 1021.6 1021.5 0.0
15/02:30am 12.1 9.1 5.9 66 2.9 S 11 15 6 8 1021.9 1021.8 0.0
15/02:00am 12.2 9.5 5.6 64 3.1 SSW 9 11 5 6 1022.2 1022.1 0.0
15/01:30am 13.1 10.4 5.5 60 3.6 S 9 13 5 7 1022.4 1022.3 0.0
15/01:00am 13.8 10.7 5.4 57 3.9 SSE 11 13 6 7 1022.5 1022.4 0.0
15/12:30am 14.5 11.3 5.3 54 4.3 S 11 17 6 9 1022.3 1022.2 0.0
15/12:00am 14.7 11.6 5.5 54 4.3 S 11 15 6 8 1022.3 1022.2 0.0
 
Date/Time
EDT
Temp
°C
App
Temp
°C
Dew
Point
°C
Rel
Hum
%
Delta-T
°C
Wind Press
QNH
hPa
Press
MSL
hPa
Rain since
9am
mm
Dir  Spd
km/h
Gust
km/h
Spd
kts
Gust
kts
14/11:30pm 15.4 12.7 5.6 52 4.7 S 9 15 5 8 1022.2 1022.1 0.0
14/11:00pm 16.2 13.1 5.5 49 5.1 SSE 11 15 6 8 1022.1 1022.0 0.0
14/10:30pm 16.6 13.5 5.6 48 5.3 SSE 11 15 6 8 1022.2 1022.1 0.0
14/10:00pm 17.4 14.7 5.4 45 5.8 SSE 9 13 5 7 1022.1 1022.0 0.0
14/09:30pm 18.2 14.7 5.4 43 6.2 SSE 13 17 7 9 1021.8 1021.7 0.0
14/09:00pm 18.7 15.6 5.5 42 6.4 SSE 11 15 6 8 1021.6 1021.5 0.0
14/08:30pm 19.1 16.4 5.6 41 6.6 SSE 9 11 5 6 1021.4 1021.3 0.0
14/08:00pm 20.2 17.5 5.4 38 7.3 SSE 9 11 5 6 1021.2 1021.1 0.0
14/07:30pm 21.8 17.8 4.8 33 8.4 SSE 15 22 8 12 1020.9 1020.8 0.0
14/07:00pm 22.8 19.2 4.8 31 8.9 SSE 13 20 7 11 1020.6 1020.5 0.0
14/06:33pm 23.2 18.8 4.7 30 9.2 S 17 28 9 15 1020.4 1020.3 0.0

Other Formats:

Comma delimited format used in spreadsheet applications
http://www.bom.gov.au/fwo/IDV60801/IDV60801.94693.axf

JavaScript Object Notation format (JSON) in row-major order
http://www.bom.gov.au/fwo/IDV60801/IDV60801.94693.json